createdAt,value
2022-10-22T00:01:48.218Z,99.90
2022-10-22T00:06:49.923Z,99.90
2022-10-22T00:11:51.840Z,99.90
2022-10-22T00:16:53.566Z,99.90
2022-10-22T00:21:55.388Z,99.90
2022-10-22T00:26:57.110Z,99.90
2022-10-22T00:31:58.907Z,99.90
2022-10-22T00:37:00.920Z,99.90
2022-10-22T00:42:02.645Z,99.90
2022-10-22T00:47:04.452Z,99.90
2022-10-22T00:52:06.811Z,99.90
2022-10-22T00:57:09.439Z,99.90
2022-10-22T01:02:11.233Z,99.90
2022-10-22T01:07:17.767Z,99.90
2022-10-22T01:12:42.835Z,99.90
2022-10-22T01:17:50.815Z,99.90
2022-10-22T01:23:14.305Z,99.90
2022-10-22T01:28:19.078Z,99.90
2022-10-22T01:33:23.782Z,99.90
2022-10-22T01:38:26.409Z,99.90
2022-10-22T01:43:28.119Z,99.90
2022-10-22T01:48:58.878Z,99.90
2022-10-22T01:54:17.466Z,99.90
2022-10-22T01:59:30.813Z,99.90
2022-10-22T02:04:48.497Z,99.90
2022-10-22T02:09:53.163Z,99.90
2022-10-22T02:14:56.296Z,99.90
2022-10-22T02:20:03.045Z,99.90
2022-10-22T02:25:06.339Z,99.90
2022-10-22T02:30:17.825Z,99.90
2022-10-22T02:35:22.954Z,99.90
2022-10-22T02:40:25.648Z,99.90
2022-10-22T02:45:27.793Z,99.90
2022-10-22T02:50:29.611Z,99.90
2022-10-22T02:55:31.797Z,99.90
2022-10-22T03:00:33.542Z,99.90
2022-10-22T03:05:35.376Z,99.90
2022-10-22T03:10:37.473Z,99.90
2022-10-22T03:15:39.211Z,99.90
2022-10-22T03:20:41.914Z,99.90
2022-10-22T03:25:46.556Z,99.90
2022-10-22T03:30:48.293Z,99.90
2022-10-22T03:35:50.054Z,99.90
2022-10-22T03:40:51.919Z,99.90
2022-10-22T03:45:53.654Z,99.90
2022-10-22T03:50:55.420Z,99.90
2022-10-22T03:55:57.139Z,99.90
2022-10-22T04:01:05.784Z,99.90
2022-10-22T04:06:10.468Z,99.90
2022-10-22T04:11:13.723Z,99.90
2022-10-22T04:16:18.914Z,99.90
2022-10-22T04:21:21.181Z,99.90
2022-10-22T04:26:23.310Z,99.90
2022-10-22T04:31:25.883Z,99.90
2022-10-22T04:36:28.607Z,99.90
2022-10-22T04:41:33.013Z,99.90
2022-10-22T04:46:36.222Z,99.90
2022-10-22T04:51:37.956Z,99.90
2022-10-22T04:56:39.682Z,99.90
2022-10-22T05:01:43.588Z,99.90
2022-10-22T05:06:45.512Z,99.90
2022-10-22T05:11:49.950Z,99.90
2022-10-22T05:16:52.728Z,99.90
2022-10-22T05:21:56.792Z,99.90
2022-10-22T05:27:00.041Z,99.90
2022-10-22T05:32:01.782Z,99.90
2022-10-22T05:37:03.594Z,99.90
2022-10-22T05:42:05.603Z,99.90
2022-10-22T05:47:07.378Z,99.90
2022-10-22T05:52:09.441Z,99.90
2022-10-22T05:57:11.167Z,99.90
2022-10-22T06:02:12.991Z,99.90
2022-10-22T06:07:16.050Z,99.90
2022-10-22T06:12:17.773Z,99.90
2022-10-22T06:17:19.918Z,99.90
2022-10-22T06:22:21.618Z,99.90
2022-10-22T06:27:23.344Z,99.90
2022-10-22T06:32:25.050Z,99.90
2022-10-22T06:37:26.790Z,99.90
2022-10-22T06:42:28.971Z,99.90
2022-10-22T06:47:33.281Z,99.90
2022-10-22T06:52:34.919Z,99.90
2022-10-22T06:57:36.713Z,99.90
2022-10-22T07:02:38.702Z,99.90
2022-10-22T07:07:40.706Z,99.90
2022-10-22T07:12:42.958Z,99.90
2022-10-22T07:17:45.165Z,99.90
2022-10-22T07:22:46.881Z,99.90
2022-10-22T07:27:48.605Z,99.90
2022-10-22T07:32:50.315Z,99.90
2022-10-22T07:37:52.043Z,99.90
2022-10-22T07:42:53.887Z,99.90
2022-10-22T07:47:55.626Z,99.90
2022-10-22T07:52:58.326Z,99.90
2022-10-22T07:58:00.642Z,99.90
2022-10-22T08:03:02.358Z,99.90
2022-10-22T08:08:04.130Z,99.90
2022-10-22T08:13:07.086Z,99.90
2022-10-22T08:18:08.963Z,99.90
2022-10-22T08:23:10.713Z,99.90
2022-10-22T08:28:12.511Z,99.90
2022-10-22T08:33:14.567Z,99.90
2022-10-22T08:38:17.243Z,99.90
2022-10-22T08:43:53.447Z,99.90
2022-10-22T08:49:01.114Z,99.90
2022-10-22T08:54:10.963Z,99.90
2022-10-22T08:59:33.905Z,99.90
2022-10-22T09:04:46.019Z,99.90
2022-10-22T09:09:51.690Z,99.80
2022-10-22T09:14:53.855Z,94.90
2022-10-22T09:20:23.746Z,91.90
2022-10-22T09:25:32.650Z,90.60
2022-10-22T09:30:38.584Z,91.70
2022-10-22T09:36:13.693Z,91.40
2022-10-22T09:41:16.585Z,90.80
2022-10-22T09:46:24.481Z,94.70
2022-10-22T09:51:40.389Z,96.00
2022-10-22T09:56:43.222Z,97.40
2022-10-22T10:01:45.458Z,98.70
2022-10-22T10:06:55.597Z,96.30
2022-10-22T10:12:21.616Z,91.90
2022-10-22T10:17:34.034Z,90.90
2022-10-22T10:22:58.040Z,90.00
2022-10-22T10:28:24.532Z,87.10
2022-10-22T10:33:44.796Z,85.10
2022-10-22T10:39:01.515Z,85.60
2022-10-22T10:44:36.577Z,83.20
2022-10-22T10:49:38.350Z,85.50
2022-10-22T10:55:13.280Z,85.20
2022-10-22T11:00:19.964Z,83.10
2022-10-22T11:05:24.687Z,84.10
2022-10-22T11:10:31.779Z,89.20
2022-10-22T11:15:36.906Z,88.30
2022-10-22T11:20:49.942Z,90.60
2022-10-22T11:25:51.752Z,90.70
2022-10-22T11:31:01.845Z,90.40
2022-10-22T11:36:05.786Z,89.10
2022-10-22T11:41:14.314Z,88.20
2022-10-22T11:46:16.000Z,86.80
2022-10-22T11:51:33.688Z,90.20
2022-10-22T11:56:39.321Z,88.00
2022-10-22T12:01:42.808Z,86.20
2022-10-22T12:06:57.652Z,87.10
2022-10-22T12:12:14.718Z,90.20
2022-10-22T12:17:18.384Z,90.40
2022-10-22T12:22:30.153Z,91.20
2022-10-22T12:27:37.355Z,92.60
2022-10-22T12:32:42.989Z,90.40
2022-10-22T12:37:45.347Z,91.20
2022-10-22T12:42:52.212Z,91.70
2022-10-22T12:48:03.093Z,91.50
2022-10-22T12:53:22.490Z,91.80
2022-10-22T12:58:54.885Z,92.80
2022-10-22T13:04:05.300Z,93.20
2022-10-22T13:09:27.595Z,93.90
2022-10-22T13:14:33.171Z,95.40
2022-10-22T13:19:54.195Z,95.10
2022-10-22T13:24:58.978Z,94.10
2022-10-22T13:30:03.705Z,93.70
2022-10-22T13:35:05.798Z,95.00
2022-10-22T13:40:15.354Z,97.00
2022-10-22T13:45:17.814Z,98.60
2022-10-22T13:50:21.089Z,98.70
2022-10-22T13:55:29.107Z,98.80
2022-10-22T14:00:31.505Z,97.60
2022-10-22T14:05:33.296Z,98.50
2022-10-22T14:10:35.017Z,97.50
2022-10-22T14:15:37.586Z,97.70
2022-10-22T14:20:42.137Z,99.10
2022-10-22T14:25:44.630Z,98.10
2022-10-22T14:30:47.009Z,98.50
2022-10-22T14:35:49.799Z,99.20
2022-10-22T14:40:51.838Z,99.70
2022-10-22T14:45:54.880Z,99.90
2022-10-22T14:50:56.677Z,99.90
2022-10-22T14:56:00.396Z,99.90
2022-10-22T15:01:03.344Z,99.90
2022-10-22T15:06:05.733Z,99.90
2022-10-22T15:11:10.406Z,99.90
2022-10-22T15:16:14.624Z,99.90
2022-10-22T15:21:20.573Z,99.90
2022-10-22T15:26:22.332Z,99.90
2022-10-22T15:31:52.971Z,99.90
2022-10-22T15:36:56.905Z,99.90
2022-10-22T15:41:59.847Z,99.90
2022-10-22T15:47:04.928Z,99.90
2022-10-22T15:52:07.362Z,99.90
2022-10-22T15:57:10.694Z,99.90
2022-10-22T16:02:12.818Z,99.90
2022-10-22T16:07:14.618Z,99.90
2022-10-22T16:12:17.314Z,99.90
2022-10-22T16:17:19.201Z,99.90
2022-10-22T16:22:20.930Z,99.90
2022-10-22T16:27:22.663Z,99.90
2022-10-22T16:32:24.425Z,99.90
2022-10-22T16:37:26.135Z,99.90
2022-10-22T16:42:27.827Z,99.90
2022-10-22T16:47:29.974Z,99.90
2022-10-22T16:52:32.293Z,99.90
2022-10-22T16:57:33.997Z,99.90
2022-10-22T17:02:37.268Z,99.90
2022-10-22T17:07:39.035Z,99.90
2022-10-22T17:12:41.603Z,99.90
2022-10-22T17:17:43.552Z,99.90
2022-10-22T17:22:46.271Z,99.90
2022-10-22T17:27:48.444Z,99.90
2022-10-22T17:32:50.211Z,99.90
2022-10-22T17:37:51.950Z,99.90
2022-10-22T17:42:54.074Z,99.90
2022-10-22T17:47:57.191Z,99.90
2022-10-22T17:52:58.914Z,99.90
2022-10-22T17:58:01.310Z,99.90
2022-10-22T18:03:03.222Z,99.90
2022-10-22T18:08:07.791Z,99.90
2022-10-22T18:13:09.670Z,99.90
2022-10-22T18:18:11.553Z,99.90
2022-10-22T18:23:13.893Z,99.90
2022-10-22T18:28:17.695Z,99.90
2022-10-22T18:33:23.875Z,99.90
2022-10-22T18:38:25.582Z,99.90
2022-10-22T18:43:27.489Z,99.90
2022-10-22T18:48:29.179Z,99.90
2022-10-22T18:53:31.130Z,99.90
2022-10-22T18:58:40.757Z,99.90
2022-10-22T19:03:42.556Z,99.90
2022-10-22T19:08:46.895Z,99.90
2022-10-22T19:13:53.092Z,99.90
2022-10-22T19:19:03.835Z,99.90
2022-10-22T19:24:05.926Z,99.90
2022-10-22T19:29:08.307Z,99.90
2022-10-22T19:34:10.328Z,99.90
2022-10-22T19:39:16.409Z,99.90
2022-10-22T19:44:19.729Z,99.90
2022-10-22T19:49:22.990Z,99.90
2022-10-22T19:54:25.270Z,99.90
2022-10-22T19:59:29.796Z,99.90
2022-10-22T20:04:33.267Z,99.90
2022-10-22T20:09:35.106Z,99.90
2022-10-22T20:14:37.463Z,99.90
2022-10-22T20:19:39.216Z,99.90
2022-10-22T20:24:40.921Z,99.90
2022-10-22T20:29:42.690Z,99.90
2022-10-22T20:34:44.499Z,99.90
2022-10-22T20:39:48.548Z,99.90
2022-10-22T20:44:50.600Z,99.90
2022-10-22T20:49:52.387Z,99.90
2022-10-22T20:54:54.097Z,99.90
2022-10-22T20:59:57.338Z,99.90
2022-10-22T21:04:59.119Z,99.90
2022-10-22T21:10:00.853Z,99.90
2022-10-22T21:15:03.106Z,99.90
2022-10-22T21:20:05.420Z,99.90
2022-10-22T21:25:07.782Z,99.90
2022-10-22T21:30:09.992Z,99.90
2022-10-22T21:35:12.344Z,99.90
2022-10-22T21:40:14.266Z,99.90
2022-10-22T21:45:19.876Z,99.90
2022-10-22T21:50:23.231Z,99.90
2022-10-22T21:55:25.035Z,99.90
2022-10-22T22:00:27.193Z,99.90
2022-10-22T22:05:29.055Z,99.90
2022-10-22T22:10:30.946Z,99.90
2022-10-22T22:15:34.609Z,99.90
2022-10-22T22:20:36.881Z,99.90
2022-10-22T22:25:38.596Z,99.90
2022-10-22T22:30:40.301Z,99.90
2022-10-22T22:35:44.500Z,99.90
2022-10-22T22:40:46.213Z,99.90
2022-10-22T22:45:48.055Z,99.90
2022-10-22T22:50:49.785Z,99.90
2022-10-22T22:55:51.518Z,99.90
2022-10-22T23:00:53.288Z,99.90
2022-10-22T23:05:55.067Z,99.90
2022-10-22T23:11:02.839Z,99.90
2022-10-22T23:16:15.782Z,99.90
2022-10-22T23:21:38.192Z,99.90
2022-10-22T23:26:43.343Z,99.90
2022-10-22T23:31:46.290Z,99.90
2022-10-22T23:36:48.275Z,99.90
2022-10-22T23:41:50.837Z,99.90
2022-10-22T23:46:52.639Z,99.90
2022-10-22T23:51:54.355Z,99.90
2022-10-22T23:56:56.063Z,99.90
